EW3570 Weather Reports


Display with metric or nautical units.
time (UTC)temp
F
wind
direction
speed
MPH
gust
MPH
rain 1hr
in
rain 24hr
in
rain mn
in
humidity
%
barometer
mb
20200228001509 34 135 0.0 5.0 0.00 0.50 0.00 73 1012.0
20200228000953 34 180 2.0 5.0 0.00 0.50 0.00 73 1011.8
20200228000443 35 180 2.0 3.0 0.00 0.50 0.00 74 1011.3
20200227235933 34 135 0.0 6.0 0.00 0.50 0.00 74 1011.5
20200227235422 34 90 0.0 6.0 0.00 0.50 0.00 73 1011.4
20200227234922 34 45 4.0 7.0 0.00 0.50 0.00 73 1011.4
20200227234408 34 180 2.0 7.0 0.00 0.50 0.00 72 1011.3
20200227233859 34 135 4.0 7.0 0.00 0.50 0.00 72 1011.4
20200227233342 34 68 3.0 6.0 0.00 0.50 0.00 72 1011.2
20200227232831 34 180 4.0 6.0 0.00 0.50 0.00 72 1011.0
20200227232323 34 90 3.0 6.0 0.00 0.50 0.00 71 1010.6
20200227231811 34 180 4.0 9.0 0.01 0.50 0.00 71 1010.6
20200227231301 34 180 4.0 9.0 0.01 0.50 0.00 70 1010.6
20200227230803 35 180 2.0 8.0 0.01 0.50 0.00 70 1010.5
20200227230241 35 135 4.0 11.0 0.01 0.50 0.00 70 1010.5
20200227225742 35 315 6.0 11.0 0.01 0.50 0.50 70 1010.4
20200227225410 35 135 7.0 9.0 0.01 0.50 0.50 71 1010.4
20200227224203 35 45 1.0 7.0 0.01 0.50 0.50 72 1009.9
20200227223651 34 135 2.0 10.0 0.01 0.50 0.50 72 1009.8
20200227223152 34 135 4.0 10.0 0.01 0.50 0.50 73 1009.6
20200227222630 34 23 6.0 10.0 0.01 0.50 0.50 74 1009.4
20200227222127 34 90 4.0 10.0 0.01 0.50 0.50 74 1009.2
20200227221622 34 225 6.0 10.0 0.00 0.48 0.48 75 1009.2
20200227221059 34 180 4.0 15.0 0.00 0.48 0.48 76 1009.0
20200227220603 34 180 4.0 15.0 0.01 0.48 0.48 76 1008.8
20200227220039 34 90 4.0 8.0 0.01 0.48 0.48 76 1008.6
20200227215529 34 180 7.0 15.0 0.01 0.48 0.48 76 1008.2
20200227215021 34 135 6.0 15.0 0.01 0.48 0.48 76 1008.1
20200227214508 34 135 8.0 11.0 0.01 0.48 0.48 76 1007.9
20200227213959 34 225 4.0 7.0 0.01 0.48 0.48 76 1007.7
20200227213816 34 45 3.0 9.0 0.01 0.48 0.48 76 1007.7
20200227212428 34 135 5.0 9.0 0.01 0.48 0.48 76 1007.1
20200227211929 34 225 4.0 9.0 0.02 0.48 0.48 75 1007.0
20200227211407 35 225 5.0 9.0 0.02 0.48 0.48 75 1006.6
20200227210900 35 135 6.0 9.0 0.01 0.47 0.47 74 1006.6
20200227210347 35 225 5.0 9.0 0.01 0.47 0.47 74 1006.2
20200227205845 35 45 4.0 11.0 0.01 0.47 0.47 73 1006.2
20200227205330 35 135 4.0 11.0 0.01 0.47 0.47 73 1006.2
20200227204817 35 90 3.0 7.0 0.01 0.47 0.47 73 1006.0
20200227204331 35 315 4.0 8.0 0.01 0.47 0.47 73 1005.7
20200227204230 35 135 4.0 8.0 0.01 0.47 0.47 74 1005.6
20200227202752 35 135 2.0 7.0 0.02 0.47 0.47 74 1004.9
20200227202241 35 90 2.0 9.0 0.02 0.47 0.47 74 1004.8
20200227201732 35 0 3.0 15.0 0.01 0.46 0.46 74 1004.1
20200227201220 35 90 4.0 15.0 0.01 0.46 0.46 74 1004.1
20200227200711 35 158 8.0 11.0 0.01 0.46 0.46 74 1003.6
20200227200203 36 135 5.0 7.0 0.01 0.46 0.46 74 1003.2
20200227195700 36 180 2.0 8.0 0.01 0.46 0.46 74 1003.2
20200227195140 36 135 4.0 8.0 0.01 0.46 0.46 73 1002.9
20200227194629 36 225 2.0 8.0 0.01 0.46 0.46 73 1002.6
20200227194122 36 135 0.0 6.0 0.02 0.46 0.46 73 1002.1
20200227193617 36 45 2.0 13.0 0.02 0.46 0.46 72 1002.1
20200227193237 36 135 5.0 18.0 0.01 0.45 0.45 72 1001.8
20200227192052 37 180 7.0 17.0 0.01 0.45 0.45 71 1000.9
20200227191528 37 90 8.0 17.0 0.02 0.45 0.45 71 1000.6
20200227191018 37 180 6.0 14.0 0.02 0.45 0.45 71 1000.3
20200227190509 37 90 6.0 21.0 0.04 0.45 0.45 70 999.8
20200227190011 38 225 5.0 21.0 0.04 0.45 0.45 70 999.2
20200227185448 38 315 8.0 17.0 0.05 0.45 0.45 70 998.7
20200227184940 38 315 6.0 17.0 0.06 0.45 0.45 70 998.3
20200227184427 38 180 13.0 17.0 0.08 0.45 0.45 70 997.9
20200227183918 39 90 6.0 16.0 0.08 0.44 0.44 70 997.7
20200227183409 39 0 7.0 14.0 0.12 0.44 0.44 70 997.1
20200227182856 39 23 8.0 15.0 0.13 0.44 0.44 69 996.9
20200227182409 39 90 5.0 17.0 0.15 0.44 0.44 70 996.5
20200227182235 39 180 5.0 17.0 0.17 0.43 0.43 71 995.9
20200227180830 39 180 5.0 14.0 0.20 0.41 0.41 76 995.0
20200227180320 39 180 9.0 14.0 0.25 0.41 0.41 80 994.2
20200227175756 39 90 5.0 17.0 0.25 0.40 0.40 81 993.9
20200227175246 38 225 9.0 17.0 0.27 0.39 0.39 81 993.5
20200227174737 38 180 11.0 15.0 0.27 0.38 0.38 82 993.1
20200227173731 37 45 6.0 15.0 0.22 0.33 0.33 82 992.5
20200227173206 36 0 11.0 13.0 0.21 0.32 0.32 82 991.9
20200227172659 36 135 8.0 14.0 0.19 0.30 0.30 81 992.2
20200227172149 36 180 8.0 15.0 0.18 0.28 0.28 81 991.9
20200227171638 36 158 7.0 16.0 0.14 0.25 0.26 81 992.0
20200227171328 36 248 8.0 16.0 0.12 0.22 0.24 81 991.7
20200227170108 36 23 7.0 15.0 0.06 0.17 0.17 81 991.8
20200227165554 36 270 8.0 17.0 0.04 0.14 0.14 81 991.8
20200227165047 35 180 10.0 17.0 0.01 0.12 0.12 81 991.7
20200227164546 35 90 9.0 17.0 0.00 0.11 0.11 81 991.9
20200227164037 35 68 7.0 10.0 0.00 0.11 0.11 81 992.0
20200227163513 35 45 4.0 12.0 0.00 0.11 0.11 81 992.4
20200227163017 35 180 10.0 12.0 0.00 0.11 0.11 81 992.5
20200227162456 34 45 3.0 8.0 0.00 0.11 0.11 81 992.4
20200227161944 34 225 4.0 8.0 0.00 0.11 0.11 81 992.4
20200227161433 34 180 4.0 8.0 0.00 0.11 0.11 81 992.7
20200227160923 34 90 4.0 12.0 0.00 0.11 0.11 81 992.7
20200227160727 33 315 5.0 12.0 0.00 0.12 0.11 81 992.9
20200227155353 32 0 4.0 8.0 0.00 0.12 0.11 80 993.0
20200227154842 32 225 4.0 8.0 0.00 0.12 0.11 80 993.2
20200227154335 32 135 4.0 8.0 0.00 0.12 0.11 80 993.3
20200227153822 32 135 7.0 8.0 0.00 0.12 0.11 80 993.3
20200227153325 32 180 6.0 10.0 0.00 0.12 0.11 80 993.5
20200227152805 32 180 7.0 10.0 0.00 0.12 0.11 80 993.6
20200227152252 32 180 4.0 9.0 0.00 0.12 0.11 80 993.5
20200227151742 32 90 6.0 9.0 0.00 0.12 0.11 80 993.7
20200227151233 32 180 5.0 9.0 0.00 0.12 0.11 80 993.6
20200227150724 32 135 4.0 8.0 0.00 0.12 0.11 80 994.0
20200227150210 32 90 5.0 9.0 0.00 0.12 0.11 80 994.2
20200227145832 32 135 4.0 9.0 0.00 0.12 0.11 80 994.2
20200227144641 32 180 4.0 8.0 0.00 0.12 0.11 80 994.0
20200227144136 32 90 4.0 9.0 0.00 0.12 0.11 80 994.1
20200227143627 32 68 4.0 9.0 0.00 0.12 0.11 79 994.7
20200227143124 31 180 6.0 9.0 0.00 0.12 0.11 79 994.6
20200227142612 32 90 4.0 9.0 0.00 0.12 0.11 78 995.0
20200227142049 32 315 5.0 9.0 0.00 0.12 0.11 78 995.0
20200227141542 32 180 4.0 8.0 0.00 0.12 0.11 78 995.1
20200227141030 32 180 5.0 8.0 0.00 0.13 0.11 77 995.1
20200227140519 32 180 3.0 8.0 0.00 0.13 0.11 77 995.1
20200227140009 32 45 4.0 8.0 0.00 0.13 0.11 76 995.4
20200227135500 32 90 4.0 7.0 0.00 0.13 0.11 76 995.7
20200227135016 32 90 4.0 5.0 0.00 0.13 0.11 76 995.7
20200227133416 32 135 4.0 6.0 0.00 0.13 0.11 75 996.3
20200227132910 32 203 2.0 4.0 0.00 0.13 0.11 75 996.3
20200227132358 33 180 2.0 4.0 0.00 0.13 0.11 75 996.8
20200227131848 32 90 2.0 4.0 0.00 0.13 0.11 75 996.8
20200227131340 32 158 4.0 4.0 0.00 0.13 0.11 75 997.1
20200227130830 32 135 4.0 4.0 0.00 0.13 0.11 74 997.3
20200227130318 33 225 2.0 6.0 0.00 0.13 0.11 74 997.5
20200227125820 33 180 4.0 7.0 0.00 0.13 0.11 74 997.3
20200227125257 33 135 4.0 7.0 0.00 0.13 0.11 73 997.6
20200227124747 33 180 2.0 4.0 0.00 0.13 0.11 73 997.7
20200227124314 33 180 2.0 4.0 0.00 0.13 0.11 73 998.0
20200227122710 33 135 1.0 4.0 0.00 0.13 0.11 72 998.5
20200227122157 33 135 2.0 4.0 0.00 0.13 0.11 71 998.5
20200227121649 34 180 3.0 5.0 0.00 0.13 0.11 71 998.9
20200227121137 34 158 2.0 6.0 0.00 0.13 0.11 70 999.0
20200227120631 34 90 3.0 6.0 0.00 0.13 0.11 70 999.0
20200227120116 34 90 2.0 6.0 0.00 0.13 0.11 68 999.2
20200227115610 35 180 2.0 6.0 0.00 0.13 0.11 67 999.4
20200227115058 35 90 1.0 6.0 0.00 0.13 0.11 66 999.9
20200227114545 36 135 4.0 6.0 0.00 0.13 0.11 65 1000.0
20200227114036 36 90 3.0 4.0 0.00 0.13 0.11 64 1000.2
20200227113538 36 135 1.0 4.0 0.00 0.13 0.11 63 1000.3
20200227113243 36 135 2.0 4.0 0.00 0.13 0.11 63 1000.7
20200227111955 37 135 1.0 4.0 0.00 0.13 0.11 63 1001.0
20200227111457 37 135 2.0 4.0 0.00 0.13 0.11 62 1001.6
20200227110949 37 90 2.0 2.0 0.00 0.13 0.11 62 1001.6
20200227110424 37 135 0.0 0.0 0.00 0.13 0.11 63 1001.7
20200227105921 37 135 0.0 0.0 0.00 0.13 0.11 64 1001.6
20200227105404 37 90 0.0 0.0 0.00 0.13 0.11 64 1002.3
20200227104921 37 90 0.0 0.0 0.01 0.13 0.11 64 1002.5
20200227104348 37 90 0.0 0.0 0.01 0.13 0.11 65 1002.6
20200227103834 37 45 0.0 2.0 0.01 0.13 0.11 65 1002.5
20200227103336 37 90 1.0 2.0 0.01 0.13 0.11 65 1003.0
20200227103130 37 180 2.0 2.0 0.01 0.13 0.11 66 1003.2
20200227101755 37 90 2.0 4.0 0.01 0.13 0.11 66 1003.4
20200227101243 37 135 2.0 2.0 0.01 0.13 0.11 66 1003.6
20200227100738 37 135 1.0 2.0 0.02 0.13 0.11 67 1003.8
20200227100223 36 135 1.0 3.0 0.02 0.14 0.11 67 1003.7
20200227095725 36 90 0.0 4.0 0.02 0.14 0.11 67 1004.0
20200227095207 36 180 2.0 4.0 0.04 0.14 0.11 67 1004.2
20200227094652 36 135 0.0 4.0 0.02 0.14 0.09 67 1004.2
20200227094147 36 135 0.0 4.0 0.02 0.14 0.09 68 1004.5
20200227093637 36 135 0.0 6.0 0.04 0.15 0.09 67 1004.6
20200227093134 35 135 4.0 6.0 0.04 0.17 0.09 67 1004.6
20200227092826 36 135 2.0 4.0 0.05 0.18 0.09 67 1004.9
20200227091552 36 180 2.0 5.0 0.06 0.18 0.09 67 1004.9
20200227091043 36 180 2.0 4.0 0.05 0.17 0.08 66 1005.0
20200227090531 36 135 2.0 4.0 0.06 0.17 0.08 67 1005.2
20200227090033 36 135 2.0 4.0 0.06 0.17 0.08 67 1005.5
20200227085528 36 90 1.0 4.0 0.05 0.15 0.08 67 1005.7
20200227085000 37 135 2.0 4.0 0.06 0.15 0.07 67 1005.9
20200227084450 37 135 2.0 5.0 0.06 0.15 0.07 67 1006.2
20200227083940 37 180 3.0 5.0 0.05 0.14 0.06 67 1006.1
20200227083434 37 180 2.0 6.0 0.05 0.14 0.06 68 1006.3
20200227083137 37 135 4.0 6.0 0.04 0.13 0.05 68 1006.2
20200227081913 36 135 3.0 4.0 0.05 0.13 0.05 69 1006.6
20200227081353 36 135 3.0 6.0 0.04 0.12 0.04 68 1007.0
20200227080839 36 135 4.0 6.0 0.04 0.12 0.04 68 1007.0
20200227080330 36 135 2.0 4.0 0.02 0.11 0.02 69 1006.7
20200227075818 36 135 3.0 4.0 0.02 0.11 0.02 70 1006.8
20200227075319 36 225 3.0 4.0 0.02 0.11 0.02 70 1006.8
20200227074758 36 135 2.0 2.0 0.01 0.09 0.01 71 1007.2
20200227074248 35 90 0.0 3.0 0.01 0.09 0.01 71 1007.2
20200227073738 35 158 1.0 3.0 0.01 0.09 0.01 72 1007.4
20200227073355 35 135 0.0 3.0 0.01 0.09 0.01 72 1007.7
20200227072210 34 135 2.0 2.0 0.00 0.08 0.00 71 1007.5
20200227071708 34 135 0.0 2.0 0.00 0.08 0.00 72 1007.9
20200227071147 34 135 0.0 0.0 0.00 0.08 0.00 72 1007.9
20200227070638 34 135 0.0 1.0 0.00 0.08 0.00 72 1007.9
20200227070127 34 135 0.0 1.0 0.00 0.08 0.00 72 1008.0
20200227065619 34 135 0.0 0.0 0.00 0.08 0.00 72 1008.2
20200227065116 34 135 0.0 3.0 0.00 0.08 0.00 72 1008.4
20200227064559 34 135 0.0 3.0 0.00 0.08 0.00 72 1007.9
20200227064046 34 135 0.0 2.0 0.00 0.08 0.00 72 1008.1
20200227063536 34 135 0.0 2.0 0.00 0.08 0.00 73 1008.0
20200227063029 33 135 0.0 2.0 0.00 0.08 0.00 73 1008.1
20200227062516 33 135 0.0 3.0 0.00 0.08 0.00 73 1008.3
20200227062018 33 135 0.0 3.0 0.00 0.08 0.00 73 1008.2
20200227061822 33 135 2.0 5.0 0.00 0.08 0.00 73 1008.4
20200227060439 33 135 0.0 5.0 0.00 0.08 0.00 72 1008.3
20200227055933 33 135 4.0 5.0 0.00 0.08 0.00 73 1008.5
20200227055423 33 135 0.0 5.0 0.00 0.08 0.00 73 1008.5
20200227054905 33 135 1.0 5.0 0.00 0.08 0.00 73 1008.6
20200227054355 33 90 2.0 5.0 0.00 0.08 0.00 74 1008.7
20200227053848 33 135 0.0 4.0 0.00 0.08 0.00 74 1009.0
20200227053336 33 135 0.0 4.0 0.00 0.08 0.00 74 1009.0
20200227052824 33 135 0.0 3.0 0.00 0.08 0.00 75 1009.1
20200227052315 33 135 1.0 6.0 0.00 0.08 0.00 75 1009.2
20200227051804 33 225 2.0 6.0 0.00 0.08 0.00 75 1008.9
20200227051256 33 180 2.0 5.0 0.00 0.08 0.00 75 1009.2
20200227050744 33 135 1.0 4.0 0.00 0.08 0.00 75 1009.5
20200227050233 33 180 3.0 4.0 0.00 0.08 0.00 76 1009.4
20200227045737 33 135 2.0 4.0 0.00 0.08 0.00 76 1009.4
20200227045317 33 158 2.0 4.0 0.00 0.08 0.00 76 1009.5
20200227044153 33 90 0.0 6.0 0.00 0.08 0.00 76 1009.6
20200227043649 33 135 2.0 4.0 0.00 0.08 0.00 77 1009.6
20200227043132 33 90 1.0 4.0 0.00 0.08 0.00 77 1009.6
20200227042628 33 135 3.0 4.0 0.00 0.08 0.00 77 1009.9
20200227042114 33 135 2.0 4.0 0.00 0.08 0.00 77 1009.7
20200227041602 33 135 2.0 4.0 0.00 0.08 0.00 77 1009.7
20200227041055 33 180 4.0 4.0 0.00 0.08 0.00 77 1009.7
20200227040542 33 135 2.0 4.0 0.00 0.08 0.00 77 1009.8
20200227040031 33 135 2.0 4.0 0.00 0.08 0.00 77 1009.7
20200227035535 33 180 2.0 4.0 0.00 0.08 0.00 77 1009.8
20200227035024 33 225 2.0 4.0 0.00 0.08 0.00 77 1009.8
20200227034507 33 90 2.0 3.0 0.00 0.08 0.00 77 1009.7
20200227033952 33 180 0.0 2.0 0.00 0.08 0.00 77 1009.8
20200227033442 33 135 0.0 3.0 0.00 0.08 0.00 77 1010.0
20200227032931 33 135 1.0 3.0 0.00 0.08 0.00 77 1009.8
20200227032421 32 135 2.0 5.0 0.00 0.08 0.00 76 1009.8
20200227031917 32 90 2.0 5.0 0.00 0.08 0.00 76 1010.0
20200227031405 33 135 2.0 5.0 0.00 0.08 0.00 76 1009.9
20200227031113 33 180 3.0 5.0 0.00 0.08 0.00 76 1010.0
20200227025833 33 135 5.0 9.0 0.00 0.08 0.00 75 1010.0
20200227025328 33 293 2.0 4.0 0.00 0.08 0.00 75 1010.0
20200227024810 33 180 2.0 4.0 0.00 0.08 0.00 75 1010.0
20200227024259 33 270 1.0 4.0 0.00 0.08 0.00 75 1010.0
20200227023749 33 180 2.0 4.0 0.00 0.08 0.00 74 1009.8
20200227023239 33 90 3.0 4.0 0.00 0.08 0.00 74 1009.8
20200227022745 33 180 2.0 4.0 0.00 0.08 0.00 74 1010.0
20200227022219 33 180 2.0 4.0 0.00 0.08 0.00 74 1010.0
20200227021709 33 135 1.0 7.0 0.00 0.08 0.00 74 1010.0
20200227021159 33 135 1.0 7.0 0.00 0.08 0.00 74 1010.0
20200227020657 33 90 2.0 4.0 0.00 0.08 0.00 74 1010.0
20200227020141 33 180 2.0 4.0 0.00 0.09 0.00 74 1009.9
20200227015628 33 135 2.0 6.0 0.00 0.09 0.00 74 1010.0
20200227015118 33 225 2.0 9.0 0.00 0.09 0.00 73 1010.0
20200227014920 33 135 2.0 9.0 0.00 0.09 0.00 73 1010.1
20200227013550 33 203 4.0 8.0 0.00 0.09 0.00 73 1010.0
20200227013038 33 180 2.0 4.0 0.00 0.09 0.00 73 1010.3
20200227012533 33 135 2.0 4.0 0.00 0.09 0.00 73 1010.3
20200227012021 33 135 2.0 4.0 0.00 0.09 0.00 73 1010.2
20200227011508 33 225 2.0 4.0 0.00 0.09 0.00 72 1010.2
20200227011000 33 180 2.0 4.0 0.00 0.09 0.00 72 1010.1
20200227010446 33 45 2.0 4.0 0.00 0.09 0.00 72 1010.2
20200227005936 33 135 2.0 5.0 0.00 0.09 0.00 72 1010.1
20200227005426 33 180 2.0 5.0 0.00 0.09 0.00 72 1010.2
20200227004918 33 45 4.0 5.0 0.00 0.09 0.00 72 1010.2
20200227004409 33 180 1.0 4.0 0.00 0.11 0.00 71 1010.1
20200227003856 33 135 2.0 7.0 0.00 0.12 0.00 71 1010.0
20200227003345 33 180 2.0 7.0 0.00 0.13 0.00 71 1010.0
20200227002838 33 135 2.0 5.0 0.00 0.18 0.00 71 1009.8
20200227002404 33 135 2.0 4.0 0.00 0.19 0.00 71 1010.0
20200227002249 33 90 2.0 7.0 0.00 0.19 0.00 71 1010.1